sensor_id;sensor_type;location;lat;lon;timestamp;temperature;humidity
9987;DHT22;5033;46.310;11.214;2022-08-30T00:01:23;23.10;99.90
9987;DHT22;5033;46.310;11.214;2022-08-30T00:03:52;23.10;99.90
9987;DHT22;5033;46.310;11.214;2022-08-30T00:06:20;23.10;99.90
9987;DHT22;5033;46.310;11.214;2022-08-30T00:08:48;23.00;99.90
9987;DHT22;5033;46.310;11.214;2022-08-30T00:11:18;22.90;99.90
9987;DHT22;5033;46.310;11.214;2022-08-30T00:13:47;22.70;99.90
9987;DHT22;5033;46.310;11.214;2022-08-30T00:16:17;22.60;99.90
9987;DHT22;5033;46.310;11.214;2022-08-30T00:18:44;22.60;99.90
9987;DHT22;5033;46.310;11.214;2022-08-30T00:21:13;22.60;99.90
9987;DHT22;5033;46.310;11.214;2022-08-30T00:23:40;22.60;99.90
9987;DHT22;5033;46.310;11.214;2022-08-30T00:26:08;22.70;99.90
9987;DHT22;5033;46.310;11.214;2022-08-30T00:28:35;22.70;99.90
9987;DHT22;5033;46.310;11.214;2022-08-30T00:31:03;22.80;99.90
9987;DHT22;5033;46.310;11.214;2022-08-30T00:33:32;22.80;99.90
9987;DHT22;5033;46.310;11.214;2022-08-30T00:35:59;22.70;99.90
9987;DHT22;5033;46.310;11.214;2022-08-30T00:38:28;22.70;99.90
9987;DHT22;5033;46.310;11.214;2022-08-30T00:40:55;22.70;99.90
9987;DHT22;5033;46.310;11.214;2022-08-30T00:43:26;22.70;99.90
9987;DHT22;5033;46.310;11.214;2022-08-30T00:45:53;22.70;99.90
9987;DHT22;5033;46.310;11.214;2022-08-30T00:48:21;22.70;99.90
9987;DHT22;5033;46.310;11.214;2022-08-30T00:50:53;22.70;99.90
9987;DHT22;5033;46.310;11.214;2022-08-30T00:53:24;22.70;99.90
9987;DHT22;5033;46.310;11.214;2022-08-30T00:55:53;22.70;99.90
9987;DHT22;5033;46.310;11.214;2022-08-30T00:58:24;22.70;99.90
9987;DHT22;5033;46.310;11.214;2022-08-30T01:00:54;22.80;99.90
9987;DHT22;5033;46.310;11.214;2022-08-30T01:03:23;22.80;99.90
9987;DHT22;5033;46.310;11.214;2022-08-30T01:05:50;22.90;99.90
9987;DHT22;5033;46.310;11.214;2022-08-30T01:08:18;23.00;99.90
9987;DHT22;5033;46.310;11.214;2022-08-30T01:10:47;23.00;99.90
9987;DHT22;5033;46.310;11.214;2022-08-30T01:13:16;23.00;99.90
9987;DHT22;5033;46.310;11.214;2022-08-30T01:15:43;22.90;99.90
9987;DHT22;5033;46.310;11.214;2022-08-30T01:18:11;22.90;99.90
9987;DHT22;5033;46.310;11.214;2022-08-30T01:20:45;23.00;99.90
9987;DHT22;5033;46.310;11.214;2022-08-30T01:23:17;23.00;99.90
9987;DHT22;5033;46.310;11.214;2022-08-30T01:25:47;22.90;99.90
9987;DHT22;5033;46.310;11.214;2022-08-30T01:28:18;22.80;99.90
9987;DHT22;5033;46.310;11.214;2022-08-30T01:30:46;22.80;99.90
9987;DHT22;5033;46.310;11.214;2022-08-30T01:33:14;22.70;99.90
9987;DHT22;5033;46.310;11.214;2022-08-30T01:35:45;22.60;99.90
9987;DHT22;5033;46.310;11.214;2022-08-30T01:38:15;22.50;99.90
9987;DHT22;5033;46.310;11.214;2022-08-30T01:40:43;22.50;99.90
9987;DHT22;5033;46.310;11.214;2022-08-30T01:43:11;22.50;99.90
9987;DHT22;5033;46.310;11.214;2022-08-30T01:45:39;22.50;99.90
9987;DHT22;5033;46.310;11.214;2022-08-30T01:48:07;22.50;99.90
9987;DHT22;5033;46.310;11.214;2022-08-30T01:50:34;22.50;99.90
9987;DHT22;5033;46.310;11.214;2022-08-30T01:53:01;22.50;99.90
9987;DHT22;5033;46.310;11.214;2022-08-30T01:55:31;22.40;99.90
9987;DHT22;5033;46.310;11.214;2022-08-30T01:57:58;22.40;99.90
9987;DHT22;5033;46.310;11.214;2022-08-30T02:00:25;22.40;99.90
9987;DHT22;5033;46.310;11.214;2022-08-30T02:02:52;22.40;99.90
9987;DHT22;5033;46.310;11.214;2022-08-30T02:05:19;22.40;99.90
9987;DHT22;5033;46.310;11.214;2022-08-30T02:07:46;22.40;99.90
9987;DHT22;5033;46.310;11.214;2022-08-30T02:10:14;22.30;99.90
9987;DHT22;5033;46.310;11.214;2022-08-30T02:12:42;22.40;99.90
9987;DHT22;5033;46.310;11.214;2022-08-30T02:15:09;22.40;99.90
9987;DHT22;5033;46.310;11.214;2022-08-30T02:17:38;22.40;99.90
9987;DHT22;5033;46.310;11.214;2022-08-30T02:20:06;22.40;99.90
9987;DHT22;5033;46.310;11.214;2022-08-30T02:22:33;22.40;99.90
9987;DHT22;5033;46.310;11.214;2022-08-30T02:25:01;22.40;99.90
9987;DHT22;5033;46.310;11.214;2022-08-30T02:27:29;22.50;99.90
9987;DHT22;5033;46.310;11.214;2022-08-30T02:29:57;22.40;99.90
9987;DHT22;5033;46.310;11.214;2022-08-30T02:32:24;22.40;99.90
9987;DHT22;5033;46.310;11.214;2022-08-30T02:34:51;22.40;99.90
9987;DHT22;5033;46.310;11.214;2022-08-30T02:37:19;22.40;99.90
9987;DHT22;5033;46.310;11.214;2022-08-30T02:39:46;22.40;99.90
9987;DHT22;5033;46.310;11.214;2022-08-30T02:42:13;22.30;99.90
9987;DHT22;5033;46.310;11.214;2022-08-30T02:44:41;22.30;99.90
9987;DHT22;5033;46.310;11.214;2022-08-30T02:47:09;22.30;99.90
9987;DHT22;5033;46.310;11.214;2022-08-30T02:49:37;22.30;99.90
9987;DHT22;5033;46.310;11.214;2022-08-30T02:52:04;22.20;99.90
9987;DHT22;5033;46.310;11.214;2022-08-30T02:54:31;22.20;99.90
9987;DHT22;5033;46.310;11.214;2022-08-30T02:56:59;22.20;99.90
9987;DHT22;5033;46.310;11.214;2022-08-30T02:59:29;22.20;99.90
9987;DHT22;5033;46.310;11.214;2022-08-30T03:01:57;22.20;99.90
9987;DHT22;5033;46.310;11.214;2022-08-30T03:04:26;22.30;99.90
9987;DHT22;5033;46.310;11.214;2022-08-30T03:06:53;22.10;99.90
9987;DHT22;5033;46.310;11.214;2022-08-30T03:09:20;22.00;99.90
9987;DHT22;5033;46.310;11.214;2022-08-30T03:11:48;22.00;99.90
9987;DHT22;5033;46.310;11.214;2022-08-30T03:14:15;22.00;99.90
9987;DHT22;5033;46.310;11.214;2022-08-30T03:16:42;22.00;99.90
9987;DHT22;5033;46.310;11.214;2022-08-30T03:19:09;22.10;99.90
9987;DHT22;5033;46.310;11.214;2022-08-30T03:21:37;22.10;99.90
9987;DHT22;5033;46.310;11.214;2022-08-30T03:24:05;22.20;99.90
9987;DHT22;5033;46.310;11.214;2022-08-30T03:26:32;22.20;99.90
9987;DHT22;5033;46.310;11.214;2022-08-30T03:28:59;22.20;99.90
9987;DHT22;5033;46.310;11.214;2022-08-30T03:31:26;22.10;99.90
9987;DHT22;5033;46.310;11.214;2022-08-30T03:33:54;22.00;99.90
9987;DHT22;5033;46.310;11.214;2022-08-30T03:36:21;21.90;99.90
9987;DHT22;5033;46.310;11.214;2022-08-30T03:38:49;21.90;99.90
9987;DHT22;5033;46.310;11.214;2022-08-30T03:41:16;21.90;99.90
9987;DHT22;5033;46.310;11.214;2022-08-30T03:43:43;21.90;99.90
9987;DHT22;5033;46.310;11.214;2022-08-30T03:46:12;21.80;99.90
9987;DHT22;5033;46.310;11.214;2022-08-30T03:48:40;21.60;99.90
9987;DHT22;5033;46.310;11.214;2022-08-30T03:51:07;21.50;99.90
9987;DHT22;5033;46.310;11.214;2022-08-30T03:53:34;21.30;99.90
9987;DHT22;5033;46.310;11.214;2022-08-30T03:56:03;21.30;99.90
9987;DHT22;5033;46.310;11.214;2022-08-30T03:58:30;21.30;99.90
9987;DHT22;5033;46.310;11.214;2022-08-30T04:00:57;21.40;99.90
9987;DHT22;5033;46.310;11.214;2022-08-30T04:03:24;21.40;99.90
9987;DHT22;5033;46.310;11.214;2022-08-30T04:05:52;21.40;99.90
9987;DHT22;5033;46.310;11.214;2022-08-30T04:08:19;21.50;99.90
9987;DHT22;5033;46.310;11.214;2022-08-30T04:10:46;21.60;99.90
9987;DHT22;5033;46.310;11.214;2022-08-30T04:13:16;21.50;99.90
9987;DHT22;5033;46.310;11.214;2022-08-30T04:15:43;21.20;99.90
9987;DHT22;5033;46.310;11.214;2022-08-30T04:18:10;21.00;99.90
9987;DHT22;5033;46.310;11.214;2022-08-30T04:20:37;20.90;99.90
9987;DHT22;5033;46.310;11.214;2022-08-30T04:23:05;20.80;99.90
9987;DHT22;5033;46.310;11.214;2022-08-30T04:25:32;20.80;99.90
9987;DHT22;5033;46.310;11.214;2022-08-30T04:28:00;20.70;99.90
9987;DHT22;5033;46.310;11.214;2022-08-30T04:30:29;20.60;99.90
9987;DHT22;5033;46.310;11.214;2022-08-30T04:32:56;20.50;99.90
9987;DHT22;5033;46.310;11.214;2022-08-30T04:35:24;20.50;99.90
9987;DHT22;5033;46.310;11.214;2022-08-30T04:37:51;20.50;99.90
9987;DHT22;5033;46.310;11.214;2022-08-30T04:40:18;20.60;99.90
9987;DHT22;5033;46.310;11.214;2022-08-30T04:42:45;20.70;99.90
9987;DHT22;5033;46.310;11.214;2022-08-30T04:45:14;20.70;99.90
9987;DHT22;5033;46.310;11.214;2022-08-30T04:47:43;20.80;99.90
9987;DHT22;5033;46.310;11.214;2022-08-30T04:50:13;20.80;99.90
9987;DHT22;5033;46.310;11.214;2022-08-30T04:52:41;20.80;99.90
9987;DHT22;5033;46.310;11.214;2022-08-30T04:55:09;20.80;99.90
9987;DHT22;5033;46.310;11.214;2022-08-30T04:57:37;20.80;99.90
9987;DHT22;5033;46.310;11.214;2022-08-30T05:00:08;20.70;99.90
9987;DHT22;5033;46.310;11.214;2022-08-30T05:02:36;20.50;99.90
9987;DHT22;5033;46.310;11.214;2022-08-30T05:05:05;20.30;99.90
9987;DHT22;5033;46.310;11.214;2022-08-30T05:07:50;20.20;99.90
9987;DHT22;5033;46.310;11.214;2022-08-30T05:10:17;20.20;99.90
9987;DHT22;5033;46.310;11.214;2022-08-30T05:12:44;20.50;99.90
9987;DHT22;5033;46.310;11.214;2022-08-30T05:15:11;20.70;99.90
9987;DHT22;5033;46.310;11.214;2022-08-30T05:17:39;20.90;99.90
9987;DHT22;5033;46.310;11.214;2022-08-30T05:20:10;20.90;99.90
9987;DHT22;5033;46.310;11.214;2022-08-30T05:22:38;21.00;99.90
9987;DHT22;5033;46.310;11.214;2022-08-30T05:25:06;21.00;99.90
9987;DHT22;5033;46.310;11.214;2022-08-30T05:27:34;21.10;99.90
9987;DHT22;5033;46.310;11.214;2022-08-30T05:30:01;21.20;99.90
9987;DHT22;5033;46.310;11.214;2022-08-30T05:32:28;21.20;99.90
9987;DHT22;5033;46.310;11.214;2022-08-30T05:34:55;21.30;99.90
9987;DHT22;5033;46.310;11.214;2022-08-30T05:37:23;21.20;99.90
9987;DHT22;5033;46.310;11.214;2022-08-30T05:39:51;21.10;99.90
9987;DHT22;5033;46.310;11.214;2022-08-30T05:42:18;21.20;99.90
9987;DHT22;5033;46.310;11.214;2022-08-30T05:44:49;21.20;99.90
9987;DHT22;5033;46.310;11.214;2022-08-30T05:47:16;21.30;99.90
9987;DHT22;5033;46.310;11.214;2022-08-30T05:49:44;21.20;99.90
9987;DHT22;5033;46.310;11.214;2022-08-30T05:52:11;20.90;99.90
9987;DHT22;5033;46.310;11.214;2022-08-30T05:54:41;20.80;99.90
9987;DHT22;5033;46.310;11.214;2022-08-30T05:57:08;20.70;99.90
9987;DHT22;5033;46.310;11.214;2022-08-30T05:59:35;20.70;99.90
9987;DHT22;5033;46.310;11.214;2022-08-30T06:02:03;20.80;99.90
9987;DHT22;5033;46.310;11.214;2022-08-30T06:04:31;20.80;99.90
9987;DHT22;5033;46.310;11.214;2022-08-30T06:06:58;20.80;99.90
9987;DHT22;5033;46.310;11.214;2022-08-30T06:09:25;20.90;99.90
9987;DHT22;5033;46.310;11.214;2022-08-30T06:11:54;21.10;99.90
9987;DHT22;5033;46.310;11.214;2022-08-30T06:14:22;21.20;99.90
9987;DHT22;5033;46.310;11.214;2022-08-30T06:16:49;21.40;99.90
9987;DHT22;5033;46.310;11.214;2022-08-30T06:19:17;21.50;99.90
9987;DHT22;5033;46.310;11.214;2022-08-30T06:21:48;21.80;99.90
9987;DHT22;5033;46.310;11.214;2022-08-30T06:24:15;22.00;99.90
9987;DHT22;5033;46.310;11.214;2022-08-30T06:26:44;22.20;99.90
9987;DHT22;5033;46.310;11.214;2022-08-30T06:29:16;22.30;99.90
9987;DHT22;5033;46.310;11.214;2022-08-30T06:31:44;22.30;99.90
9987;DHT22;5033;46.310;11.214;2022-08-30T06:34:11;22.30;99.90
9987;DHT22;5033;46.310;11.214;2022-08-30T06:36:38;22.20;99.90
9987;DHT22;5033;46.310;11.214;2022-08-30T06:39:05;22.10;99.90
9987;DHT22;5033;46.310;11.214;2022-08-30T06:41:34;21.90;99.90
9987;DHT22;5033;46.310;11.214;2022-08-30T06:44:02;21.60;99.90
9987;DHT22;5033;46.310;11.214;2022-08-30T06:46:33;21.60;99.90
9987;DHT22;5033;46.310;11.214;2022-08-30T06:49:01;21.60;99.90
9987;DHT22;5033;46.310;11.214;2022-08-30T06:51:30;21.80;99.90
9987;DHT22;5033;46.310;11.214;2022-08-30T06:53:59;22.10;99.90
9987;DHT22;5033;46.310;11.214;2022-08-30T06:56:27;22.10;99.90
9987;DHT22;5033;46.310;11.214;2022-08-30T06:58:54;22.10;99.90
9987;DHT22;5033;46.310;11.214;2022-08-30T07:01:24;22.10;99.90
9987;DHT22;5033;46.310;11.214;2022-08-30T07:03:53;22.10;99.90
9987;DHT22;5033;46.310;11.214;2022-08-30T07:06:22;22.20;99.90
9987;DHT22;5033;46.310;11.214;2022-08-30T07:08:49;22.20;99.90
9987;DHT22;5033;46.310;11.214;2022-08-30T07:11:25;22.20;99.90
9987;DHT22;5033;46.310;11.214;2022-08-30T07:13:53;22.30;99.90
9987;DHT22;5033;46.310;11.214;2022-08-30T07:16:20;22.50;99.90
9987;DHT22;5033;46.310;11.214;2022-08-30T07:18:48;22.50;99.90
9987;DHT22;5033;46.310;11.214;2022-08-30T07:21:24;22.60;99.90
9987;DHT22;5033;46.310;11.214;2022-08-30T07:23:52;22.60;99.90
9987;DHT22;5033;46.310;11.214;2022-08-30T07:26:22;22.50;99.90
9987;DHT22;5033;46.310;11.214;2022-08-30T07:28:50;22.60;99.90
9987;DHT22;5033;46.310;11.214;2022-08-30T07:31:18;22.80;99.90
9987;DHT22;5033;46.310;11.214;2022-08-30T07:33:46;23.10;99.90
9987;DHT22;5033;46.310;11.214;2022-08-30T07:36:13;23.40;99.90
9987;DHT22;5033;46.310;11.214;2022-08-30T07:38:44;23.60;99.90
9987;DHT22;5033;46.310;11.214;2022-08-30T07:41:19;23.90;99.90
9987;DHT22;5033;46.310;11.214;2022-08-30T07:43:47;24.20;99.90
9987;DHT22;5033;46.310;11.214;2022-08-30T07:46:14;24.60;99.90
9987;DHT22;5033;46.310;11.214;2022-08-30T07:48:42;24.80;99.90
9987;DHT22;5033;46.310;11.214;2022-08-30T07:51:11;24.80;99.90
9987;DHT22;5033;46.310;11.214;2022-08-30T07:53:39;24.90;99.90
9987;DHT22;5033;46.310;11.214;2022-08-30T07:56:08;25.20;99.90
9987;DHT22;5033;46.310;11.214;2022-08-30T07:58:35;25.30;99.90
9987;DHT22;5033;46.310;11.214;2022-08-30T08:01:03;25.40;99.90
9987;DHT22;5033;46.310;11.214;2022-08-30T08:03:31;25.50;99.90
9987;DHT22;5033;46.310;11.214;2022-08-30T08:06:01;25.70;99.90
9987;DHT22;5033;46.310;11.214;2022-08-30T08:08:28;26.10;99.90
9987;DHT22;5033;46.310;11.214;2022-08-30T08:10:56;26.30;99.90
9987;DHT22;5033;46.310;11.214;2022-08-30T08:13:24;26.30;99.90
9987;DHT22;5033;46.310;11.214;2022-08-30T08:15:51;26.20;99.90
9987;DHT22;5033;46.310;11.214;2022-08-30T08:18:19;26.20;99.90
9987;DHT22;5033;46.310;11.214;2022-08-30T08:20:46;26.40;99.90
9987;DHT22;5033;46.310;11.214;2022-08-30T08:23:14;26.40;99.90
9987;DHT22;5033;46.310;11.214;2022-08-30T08:25:41;26.30;99.90
9987;DHT22;5033;46.310;11.214;2022-08-30T08:28:08;26.20;99.90
9987;DHT22;5033;46.310;11.214;2022-08-30T08:30:37;26.20;99.90
9987;DHT22;5033;46.310;11.214;2022-08-30T08:33:05;26.20;99.90
9987;DHT22;5033;46.310;11.214;2022-08-30T08:35:33;26.30;99.90
9987;DHT22;5033;46.310;11.214;2022-08-30T08:38:00;26.30;99.90
9987;DHT22;5033;46.310;11.214;2022-08-30T08:40:28;26.40;99.90
9987;DHT22;5033;46.310;11.214;2022-08-30T08:43:02;26.40;99.90
9987;DHT22;5033;46.310;11.214;2022-08-30T08:45:42;26.40;99.90
9987;DHT22;5033;46.310;11.214;2022-08-30T08:48:24;26.50;99.90
9987;DHT22;5033;46.310;11.214;2022-08-30T08:50:55;26.80;99.90
9987;DHT22;5033;46.310;11.214;2022-08-30T08:53:39;27.00;99.90
9987;DHT22;5033;46.310;11.214;2022-08-30T08:56:12;26.70;99.90
9987;DHT22;5033;46.310;11.214;2022-08-30T08:58:43;26.50;99.90
9987;DHT22;5033;46.310;11.214;2022-08-30T09:01:15;26.30;99.90
9987;DHT22;5033;46.310;11.214;2022-08-30T09:03:43;26.30;99.90
9987;DHT22;5033;46.310;11.214;2022-08-30T09:09:08;26.70;99.90
9987;DHT22;5033;46.310;11.214;2022-08-30T09:11:36;26.90;99.90
9987;DHT22;5033;46.310;11.214;2022-08-30T09:14:05;27.20;99.90
9987;DHT22;5033;46.310;11.214;2022-08-30T09:16:52;27.30;99.90
9987;DHT22;5033;46.310;11.214;2022-08-30T09:19:28;27.50;99.90
9987;DHT22;5033;46.310;11.214;2022-08-30T09:21:57;27.60;99.90
9987;DHT22;5033;46.310;11.214;2022-08-30T09:24:25;27.90;99.90
9987;DHT22;5033;46.310;11.214;2022-08-30T09:26:52;27.90;99.90
9987;DHT22;5033;46.310;11.214;2022-08-30T09:29:19;27.80;99.90
9987;DHT22;5033;46.310;11.214;2022-08-30T09:31:51;27.80;99.90
9987;DHT22;5033;46.310;11.214;2022-08-30T09:34:20;27.90;99.90
9987;DHT22;5033;46.310;11.214;2022-08-30T09:36:49;27.90;99.90
9987;DHT22;5033;46.310;11.214;2022-08-30T09:39:18;28.10;99.90
9987;DHT22;5033;46.310;11.214;2022-08-30T09:41:47;28.40;99.90
9987;DHT22;5033;46.310;11.214;2022-08-30T09:44:17;28.30;99.90
9987;DHT22;5033;46.310;11.214;2022-08-30T09:46:46;28.30;99.90
9987;DHT22;5033;46.310;11.214;2022-08-30T09:49:30;28.30;99.90
9987;DHT22;5033;46.310;11.214;2022-08-30T09:52:08;28.20;99.90
9987;DHT22;5033;46.310;11.214;2022-08-30T09:54:43;28.20;99.90
9987;DHT22;5033;46.310;11.214;2022-08-30T09:57:20;28.20;99.90
9987;DHT22;5033;46.310;11.214;2022-08-30T09:59:56;28.30;99.90
9987;DHT22;5033;46.310;11.214;2022-08-30T10:02:45;28.40;99.90
9987;DHT22;5033;46.310;11.214;2022-08-30T10:05:20;28.30;99.90
9987;DHT22;5033;46.310;11.214;2022-08-30T10:07:56;28.50;99.90
9987;DHT22;5033;46.310;11.214;2022-08-30T10:10:30;28.70;99.90
9987;DHT22;5033;46.310;11.214;2022-08-30T10:13:08;28.70;99.90
9987;DHT22;5033;46.310;11.214;2022-08-30T10:15:41;28.60;99.90
9987;DHT22;5033;46.310;11.214;2022-08-30T10:18:15;28.60;99.90
9987;DHT22;5033;46.310;11.214;2022-08-30T10:20:55;28.70;99.90
9987;DHT22;5033;46.310;11.214;2022-08-30T10:23:29;28.70;99.90
9987;DHT22;5033;46.310;11.214;2022-08-30T10:26:06;28.90;99.90
9987;DHT22;5033;46.310;11.214;2022-08-30T10:28:39;29.00;99.90
9987;DHT22;5033;46.310;11.214;2022-08-30T10:31:11;29.40;99.90
9987;DHT22;5033;46.310;11.214;2022-08-30T10:33:42;29.60;99.90
9987;DHT22;5033;46.310;11.214;2022-08-30T10:36:13;29.50;99.90
9987;DHT22;5033;46.310;11.214;2022-08-30T10:38:45;29.40;99.90
9987;DHT22;5033;46.310;11.214;2022-08-30T10:41:23;29.30;99.90
9987;DHT22;5033;46.310;11.214;2022-08-30T10:43:56;29.60;99.90
9987;DHT22;5033;46.310;11.214;2022-08-30T10:46:29;29.70;99.90
9987;DHT22;5033;46.310;11.214;2022-08-30T10:49:02;29.70;99.90
9987;DHT22;5033;46.310;11.214;2022-08-30T10:51:35;29.50;99.90
9987;DHT22;5033;46.310;11.214;2022-08-30T10:54:07;29.30;99.90
9987;DHT22;5033;46.310;11.214;2022-08-30T10:56:39;29.20;99.90
9987;DHT22;5033;46.310;11.214;2022-08-30T10:59:08;29.20;99.90
9987;DHT22;5033;46.310;11.214;2022-08-30T11:05:06;29.20;99.90
9987;DHT22;5033;46.310;11.214;2022-08-30T11:07:46;29.20;99.90
9987;DHT22;5033;46.310;11.214;2022-08-30T11:10:30;29.30;99.90
9987;DHT22;5033;46.310;11.214;2022-08-30T11:13:01;29.40;99.90
9987;DHT22;5033;46.310;11.214;2022-08-30T11:15:33;29.50;99.90
9987;DHT22;5033;46.310;11.214;2022-08-30T11:18:04;29.60;99.90
9987;DHT22;5033;46.310;11.214;2022-08-30T11:20:36;29.60;99.90
9987;DHT22;5033;46.310;11.214;2022-08-30T11:23:35;29.50;99.90
9987;DHT22;5033;46.310;11.214;2022-08-30T11:26:04;29.60;99.90
9987;DHT22;5033;46.310;11.214;2022-08-30T11:29:00;29.60;99.90
9987;DHT22;5033;46.310;11.214;2022-08-30T11:31:33;29.90;99.90
9987;DHT22;5033;46.310;11.214;2022-08-30T11:34:01;30.00;99.90
9987;DHT22;5033;46.310;11.214;2022-08-30T11:39:52;30.00;99.90
9987;DHT22;5033;46.310;11.214;2022-08-30T11:42:38;30.00;99.90
9987;DHT22;5033;46.310;11.214;2022-08-30T11:45:43;30.10;99.90
9987;DHT22;5033;46.310;11.214;2022-08-30T11:48:40;30.30;99.90
9987;DHT22;5033;46.310;11.214;2022-08-30T11:54:06;30.60;99.90
9987;DHT22;5033;46.310;11.214;2022-08-30T11:56:47;30.70;99.90
9987;DHT22;5033;46.310;11.214;2022-08-30T11:59:24;30.70;99.90
9987;DHT22;5033;46.310;11.214;2022-08-30T12:01:54;30.20;99.90
9987;DHT22;5033;46.310;11.214;2022-08-30T12:04:33;30.20;99.90
9987;DHT22;5033;46.310;11.214;2022-08-30T12:07:03;30.40;99.90
9987;DHT22;5033;46.310;11.214;2022-08-30T12:12:52;31.30;99.90
9987;DHT22;5033;46.310;11.214;2022-08-30T12:18:17;31.30;99.90
9987;DHT22;5033;46.310;11.214;2022-08-30T12:20:53;31.20;99.90
9987;DHT22;5033;46.310;11.214;2022-08-30T12:23:31;31.00;99.90
9987;DHT22;5033;46.310;11.214;2022-08-30T12:26:19;30.90;99.90
9987;DHT22;5033;46.310;11.214;2022-08-30T12:28:48;30.70;99.90
9987;DHT22;5033;46.310;11.214;2022-08-30T12:31:19;30.80;99.90
9987;DHT22;5033;46.310;11.214;2022-08-30T12:33:49;30.80;99.90
9987;DHT22;5033;46.310;11.214;2022-08-30T12:36:31;31.00;99.90
9987;DHT22;5033;46.310;11.214;2022-08-30T12:39:10;30.80;99.90
9987;DHT22;5033;46.310;11.214;2022-08-30T12:41:38;30.60;99.90
9987;DHT22;5033;46.310;11.214;2022-08-30T12:44:11;30.20;99.90
9987;DHT22;5033;46.310;11.214;2022-08-30T12:46:40;30.00;99.90
9987;DHT22;5033;46.310;11.214;2022-08-30T12:49:08;29.90;99.90
9987;DHT22;5033;46.310;11.214;2022-08-30T12:51:39;29.80;99.90
9987;DHT22;5033;46.310;11.214;2022-08-30T12:54:13;29.60;99.90
9987;DHT22;5033;46.310;11.214;2022-08-30T12:56:59;29.60;99.90
9987;DHT22;5033;46.310;11.214;2022-08-30T12:59:44;29.60;99.90
9987;DHT22;5033;46.310;11.214;2022-08-30T13:02:15;29.40;99.90
9987;DHT22;5033;46.310;11.214;2022-08-30T13:04:43;29.40;99.90
9987;DHT22;5033;46.310;11.214;2022-08-30T13:07:27;29.10;99.90
9987;DHT22;5033;46.310;11.214;2022-08-30T13:10:13;29.10;99.90
9987;DHT22;5033;46.310;11.214;2022-08-30T13:12:58;29.10;99.90
9987;DHT22;5033;46.310;11.214;2022-08-30T13:15:32;29.10;99.90
9987;DHT22;5033;46.310;11.214;2022-08-30T13:18:23;28.90;99.90
9987;DHT22;5033;46.310;11.214;2022-08-30T13:21:18;28.60;99.90
9987;DHT22;5033;46.310;11.214;2022-08-30T13:23:46;28.50;99.90
9987;DHT22;5033;46.310;11.214;2022-08-30T13:26:13;28.40;99.90
9987;DHT22;5033;46.310;11.214;2022-08-30T13:28:45;28.30;99.90
9987;DHT22;5033;46.310;11.214;2022-08-30T13:31:14;28.40;99.90
9987;DHT22;5033;46.310;11.214;2022-08-30T13:33:41;28.50;99.90
9987;DHT22;5033;46.310;11.214;2022-08-30T13:36:11;28.40;99.90
9987;DHT22;5033;46.310;11.214;2022-08-30T13:38:38;28.40;99.90
9987;DHT22;5033;46.310;11.214;2022-08-30T13:41:05;28.60;99.90
9987;DHT22;5033;46.310;11.214;2022-08-30T13:43:32;28.90;99.90
9987;DHT22;5033;46.310;11.214;2022-08-30T13:46:00;29.10;99.90
9987;DHT22;5033;46.310;11.214;2022-08-30T13:48:28;29.30;99.90
9987;DHT22;5033;46.310;11.214;2022-08-30T13:50:55;29.20;99.90
9987;DHT22;5033;46.310;11.214;2022-08-30T13:53:22;28.90;99.90
9987;DHT22;5033;46.310;11.214;2022-08-30T13:55:50;28.60;99.90
9987;DHT22;5033;46.310;11.214;2022-08-30T13:58:17;28.50;99.90
9987;DHT22;5033;46.310;11.214;2022-08-30T14:00:45;28.40;99.90
9987;DHT22;5033;46.310;11.214;2022-08-30T14:03:12;28.10;99.90
9987;DHT22;5033;46.310;11.214;2022-08-30T14:05:42;28.20;99.90
9987;DHT22;5033;46.310;11.214;2022-08-30T14:08:10;28.30;99.90
9987;DHT22;5033;46.310;11.214;2022-08-30T14:10:38;28.40;99.90
9987;DHT22;5033;46.310;11.214;2022-08-30T14:13:05;28.50;99.90
9987;DHT22;5033;46.310;11.214;2022-08-30T14:15:35;28.60;99.90
9987;DHT22;5033;46.310;11.214;2022-08-30T14:18:02;28.70;99.90
9987;DHT22;5033;46.310;11.214;2022-08-30T14:20:30;28.80;99.90
9987;DHT22;5033;46.310;11.214;2022-08-30T14:22:58;28.70;99.90
9987;DHT22;5033;46.310;11.214;2022-08-30T14:25:25;28.70;99.90
9987;DHT22;5033;46.310;11.214;2022-08-30T14:27:53;28.70;99.90
9987;DHT22;5033;46.310;11.214;2022-08-30T14:30:23;28.70;99.90
9987;DHT22;5033;46.310;11.214;2022-08-30T14:32:50;28.70;99.90
9987;DHT22;5033;46.310;11.214;2022-08-30T14:35:18;28.70;99.90
9987;DHT22;5033;46.310;11.214;2022-08-30T14:37:45;28.50;99.90
9987;DHT22;5033;46.310;11.214;2022-08-30T14:40:14;28.40;99.90
9987;DHT22;5033;46.310;11.214;2022-08-30T14:42:41;28.10;99.90
9987;DHT22;5033;46.310;11.214;2022-08-30T14:45:09;27.80;99.90
9987;DHT22;5033;46.310;11.214;2022-08-30T14:47:37;27.60;99.90
9987;DHT22;5033;46.310;11.214;2022-08-30T14:50:05;27.40;99.90
9987;DHT22;5033;46.310;11.214;2022-08-30T14:52:33;27.30;99.90
9987;DHT22;5033;46.310;11.214;2022-08-30T14:55:01;27.30;99.90
9987;DHT22;5033;46.310;11.214;2022-08-30T14:57:30;27.30;99.90
9987;DHT22;5033;46.310;11.214;2022-08-30T14:59:57;27.30;99.90
9987;DHT22;5033;46.310;11.214;2022-08-30T15:02:24;27.20;99.90
9987;DHT22;5033;46.310;11.214;2022-08-30T15:04:51;27.20;99.90
9987;DHT22;5033;46.310;11.214;2022-08-30T15:07:18;27.20;99.90
9987;DHT22;5033;46.310;11.214;2022-08-30T15:09:45;27.20;99.90
9987;DHT22;5033;46.310;11.214;2022-08-30T15:12:12;27.20;99.90
9987;DHT22;5033;46.310;11.214;2022-08-30T15:14:41;27.20;99.90
9987;DHT22;5033;46.310;11.214;2022-08-30T15:17:08;27.10;99.90
9987;DHT22;5033;46.310;11.214;2022-08-30T15:19:35;27.10;99.90
9987;DHT22;5033;46.310;11.214;2022-08-30T15:22:04;27.10;99.90
9987;DHT22;5033;46.310;11.214;2022-08-30T15:24:32;27.00;99.90
9987;DHT22;5033;46.310;11.214;2022-08-30T15:26:59;27.00;99.90
9987;DHT22;5033;46.310;11.214;2022-08-30T15:29:27;27.00;99.90
9987;DHT22;5033;46.310;11.214;2022-08-30T15:31:55;27.00;99.90
9987;DHT22;5033;46.310;11.214;2022-08-30T15:34:22;26.90;99.90
9987;DHT22;5033;46.310;11.214;2022-08-30T15:36:50;26.90;99.90
9987;DHT22;5033;46.310;11.214;2022-08-30T15:39:17;26.90;99.90
9987;DHT22;5033;46.310;11.214;2022-08-30T15:41:45;26.90;99.90
9987;DHT22;5033;46.310;11.214;2022-08-30T15:44:12;26.90;99.90
9987;DHT22;5033;46.310;11.214;2022-08-30T15:46:41;26.90;99.90
9987;DHT22;5033;46.310;11.214;2022-08-30T15:49:12;26.90;99.90
9987;DHT22;5033;46.310;11.214;2022-08-30T15:51:40;26.90;99.90
9987;DHT22;5033;46.310;11.214;2022-08-30T15:54:09;26.90;99.90
9987;DHT22;5033;46.310;11.214;2022-08-30T15:56:37;26.90;99.90
9987;DHT22;5033;46.310;11.214;2022-08-30T15:59:05;27.00;99.90
9987;DHT22;5033;46.310;11.214;2022-08-30T16:01:32;27.00;99.90
9987;DHT22;5033;46.310;11.214;2022-08-30T16:03:59;27.00;99.90
9987;DHT22;5033;46.310;11.214;2022-08-30T16:06:32;27.00;99.90
9987;DHT22;5033;46.310;11.214;2022-08-30T16:09:02;27.00;99.90
9987;DHT22;5033;46.310;11.214;2022-08-30T16:11:29;27.00;99.90
9987;DHT22;5033;46.310;11.214;2022-08-30T16:13:56;27.00;99.90
9987;DHT22;5033;46.310;11.214;2022-08-30T16:16:24;27.00;99.90
9987;DHT22;5033;46.310;11.214;2022-08-30T16:18:51;27.00;99.90
9987;DHT22;5033;46.310;11.214;2022-08-30T16:21:21;27.00;99.90